Terminal Aerodrome Forecast
Issued by NWS Tuscon, AZ

Home | Current Version | Previous Version | Text Only | Print | Product List | Glossary On
Versions: 1 2 3 4 5 6 7 8 9 10 11 12
000
FTUS45 KTWC 221100
TAFDUG
TAF
KDUG 221126Z 2212/2312 VRB05KT P6SM SKC
     FM221900 28007KT P6SM SCT250
     FM230300 33006KT P6SM SCT250=

USA.gov is the U.S. government's official web portal to all federal, state and local government web resources and services.